sensor_id;sensor_type;location;lat;lon;timestamp;temperature;humidity
63383;DHT22;49512;48.744;9.176;2023-04-06T00:02:11;13.10;93.20
63383;DHT22;49512;48.744;9.176;2023-04-06T00:04:36;13.10;93.20
63383;DHT22;49512;48.744;9.176;2023-04-06T00:07:01;13.10;93.20
63383;DHT22;49512;48.744;9.176;2023-04-06T00:09:27;13.20;93.20
63383;DHT22;49512;48.744;9.176;2023-04-06T00:11:52;13.10;93.10
63383;DHT22;49512;48.744;9.176;2023-04-06T00:14:18;13.20;93.20
63383;DHT22;49512;48.744;9.176;2023-04-06T00:16:43;13.10;93.10
63383;DHT22;49512;48.744;9.176;2023-04-06T00:19:09;13.20;93.00
63383;DHT22;49512;48.744;9.176;2023-04-06T00:21:35;13.20;93.00
63383;DHT22;49512;48.744;9.176;2023-04-06T00:24:01;13.20;93.00
63383;DHT22;49512;48.744;9.176;2023-04-06T00:26:26;13.20;93.00
63383;DHT22;49512;48.744;9.176;2023-04-06T00:28:52;13.20;93.00
63383;DHT22;49512;48.744;9.176;2023-04-06T00:31:17;13.20;93.00
63383;DHT22;49512;48.744;9.176;2023-04-06T00:33:43;13.20;93.00
63383;DHT22;49512;48.744;9.176;2023-04-06T00:36:08;13.20;93.10
63383;DHT22;49512;48.744;9.176;2023-04-06T00:38:34;13.20;93.20
63383;DHT22;49512;48.744;9.176;2023-04-06T00:41:00;13.20;93.20
63383;DHT22;49512;48.744;9.176;2023-04-06T00:43:25;13.20;93.20
63383;DHT22;49512;48.744;9.176;2023-04-06T00:45:51;13.20;93.20
63383;DHT22;49512;48.744;9.176;2023-04-06T00:48:16;13.20;93.30
63383;DHT22;49512;48.744;9.176;2023-04-06T00:50:42;13.20;93.30
63383;DHT22;49512;48.744;9.176;2023-04-06T00:53:08;13.20;93.30
63383;DHT22;49512;48.744;9.176;2023-04-06T00:55:33;13.20;93.40
63383;DHT22;49512;48.744;9.176;2023-04-06T00:58:01;13.20;93.40
63383;DHT22;49512;48.744;9.176;2023-04-06T01:00:27;13.20;93.30
63383;DHT22;49512;48.744;9.176;2023-04-06T01:02:53;13.20;93.30
63383;DHT22;49512;48.744;9.176;2023-04-06T01:05:18;13.20;93.50
63383;DHT22;49512;48.744;9.176;2023-04-06T01:07:44;13.20;93.50
63383;DHT22;49512;48.744;9.176;2023-04-06T01:10:10;13.20;93.60
63383;DHT22;49512;48.744;9.176;2023-04-06T01:12:35;13.20;93.60
63383;DHT22;49512;48.744;9.176;2023-04-06T01:15:02;13.20;93.60
63383;DHT22;49512;48.744;9.176;2023-04-06T01:17:28;13.20;94.10
63383;DHT22;49512;48.744;9.176;2023-04-06T01:19:54;13.20;93.80
63383;DHT22;49512;48.744;9.176;2023-04-06T01:22:19;13.10;93.70
63383;DHT22;49512;48.744;9.176;2023-04-06T01:24:45;13.10;93.80
63383;DHT22;49512;48.744;9.176;2023-04-06T01:27:11;13.20;93.80
63383;DHT22;49512;48.744;9.176;2023-04-06T01:29:37;13.20;93.80
63383;DHT22;49512;48.744;9.176;2023-04-06T01:32:06;13.20;94.10
63383;DHT22;49512;48.744;9.176;2023-04-06T01:34:32;13.00;93.70
63383;DHT22;49512;48.744;9.176;2023-04-06T01:36:57;13.10;93.70
63383;DHT22;49512;48.744;9.176;2023-04-06T01:39:22;13.20;93.70
63383;DHT22;49512;48.744;9.176;2023-04-06T01:41:48;13.10;93.70
63383;DHT22;49512;48.744;9.176;2023-04-06T01:44:16;13.10;93.70
63383;DHT22;49512;48.744;9.176;2023-04-06T01:46:41;13.20;93.70
63383;DHT22;49512;48.744;9.176;2023-04-06T01:49:07;13.20;93.60
63383;DHT22;49512;48.744;9.176;2023-04-06T01:51:32;13.20;93.60
63383;DHT22;49512;48.744;9.176;2023-04-06T01:53:58;13.10;93.50
63383;DHT22;49512;48.744;9.176;2023-04-06T01:56:23;13.10;93.60
63383;DHT22;49512;48.744;9.176;2023-04-06T01:58:49;13.20;93.50
63383;DHT22;49512;48.744;9.176;2023-04-06T02:01:15;13.10;93.50
63383;DHT22;49512;48.744;9.176;2023-04-06T02:03:41;12.90;93.40
63383;DHT22;49512;48.744;9.176;2023-04-06T02:06:06;13.10;93.50
63383;DHT22;49512;48.744;9.176;2023-04-06T02:08:32;13.20;93.60
63383;DHT22;49512;48.744;9.176;2023-04-06T02:10:57;13.10;93.60
63383;DHT22;49512;48.744;9.176;2023-04-06T02:13:23;13.10;93.60
63383;DHT22;49512;48.744;9.176;2023-04-06T02:15:48;13.10;93.60
63383;DHT22;49512;48.744;9.176;2023-04-06T02:18:14;13.10;93.60
63383;DHT22;49512;48.744;9.176;2023-04-06T02:20:40;13.10;93.60
63383;DHT22;49512;48.744;9.176;2023-04-06T02:23:06;13.10;93.60
63383;DHT22;49512;48.744;9.176;2023-04-06T02:25:31;13.10;93.60
63383;DHT22;49512;48.744;9.176;2023-04-06T02:27:57;13.20;94.00
63383;DHT22;49512;48.744;9.176;2023-04-06T02:30:23;13.10;93.60
63383;DHT22;49512;48.744;9.176;2023-04-06T02:32:48;13.10;93.60
63383;DHT22;49512;48.744;9.176;2023-04-06T02:35:14;13.10;93.60
63383;DHT22;49512;48.744;9.176;2023-04-06T02:37:40;13.10;93.60
63383;DHT22;49512;48.744;9.176;2023-04-06T02:40:05;13.20;93.60
63383;DHT22;49512;48.744;9.176;2023-04-06T02:42:31;13.10;93.60
63383;DHT22;49512;48.744;9.176;2023-04-06T02:44:57;13.10;93.60
63383;DHT22;49512;48.744;9.176;2023-04-06T02:47:22;13.10;94.10
63383;DHT22;49512;48.744;9.176;2023-04-06T02:49:48;13.10;93.60
63383;DHT22;49512;48.744;9.176;2023-04-06T02:52:13;13.10;93.90
63383;DHT22;49512;48.744;9.176;2023-04-06T02:54:39;13.10;93.50
63383;DHT22;49512;48.744;9.176;2023-04-06T02:57:05;13.10;93.90
63383;DHT22;49512;48.744;9.176;2023-04-06T02:59:31;13.10;93.50
63383;DHT22;49512;48.744;9.176;2023-04-06T03:01:56;13.10;93.40
63383;DHT22;49512;48.744;9.176;2023-04-06T03:04:22;13.10;93.40
63383;DHT22;49512;48.744;9.176;2023-04-06T03:06:50;13.10;93.40
63383;DHT22;49512;48.744;9.176;2023-04-06T03:09:16;13.10;93.40
63383;DHT22;49512;48.744;9.176;2023-04-06T03:11:41;13.10;93.40
63383;DHT22;49512;48.744;9.176;2023-04-06T03:14:07;13.10;93.40
63383;DHT22;49512;48.744;9.176;2023-04-06T03:16:32;13.10;93.30
63383;DHT22;49512;48.744;9.176;2023-04-06T03:18:58;13.10;93.30
63383;DHT22;49512;48.744;9.176;2023-04-06T03:21:23;13.10;93.20
63383;DHT22;49512;48.744;9.176;2023-04-06T03:23:49;13.10;93.30
63383;DHT22;49512;48.744;9.176;2023-04-06T03:26:16;13.10;93.30
63383;DHT22;49512;48.744;9.176;2023-04-06T03:28:42;13.10;93.20
63383;DHT22;49512;48.744;9.176;2023-04-06T03:31:07;13.10;93.20
63383;DHT22;49512;48.744;9.176;2023-04-06T03:33:33;13.10;93.20
63383;DHT22;49512;48.744;9.176;2023-04-06T03:35:58;13.00;93.20
63383;DHT22;49512;48.744;9.176;2023-04-06T03:38:24;13.10;93.30
63383;DHT22;49512;48.744;9.176;2023-04-06T03:40:49;13.10;93.30
63383;DHT22;49512;48.744;9.176;2023-04-06T03:43:15;13.10;93.70
63383;DHT22;49512;48.744;9.176;2023-04-06T03:45:40;13.10;93.70
63383;DHT22;49512;48.744;9.176;2023-04-06T03:48:06;13.10;93.30
63383;DHT22;49512;48.744;9.176;2023-04-06T03:50:31;12.80;93.20
63383;DHT22;49512;48.744;9.176;2023-04-06T03:52:57;13.10;93.30
63383;DHT22;49512;48.744;9.176;2023-04-06T03:55:22;13.00;93.30
63383;DHT22;49512;48.744;9.176;2023-04-06T03:57:48;13.10;93.80
63383;DHT22;49512;48.744;9.176;2023-04-06T04:00:13;13.10;93.40
63383;DHT22;49512;48.744;9.176;2023-04-06T04:02:40;13.10;93.40
63383;DHT22;49512;48.744;9.176;2023-04-06T04:05:05;13.00;93.30
63383;DHT22;49512;48.744;9.176;2023-04-06T04:07:31;13.00;93.30
63383;DHT22;49512;48.744;9.176;2023-04-06T04:09:56;13.10;93.30
63383;DHT22;49512;48.744;9.176;2023-04-06T04:12:22;13.00;93.40
63383;DHT22;49512;48.744;9.176;2023-04-06T04:14:47;13.00;93.40
63383;DHT22;49512;48.744;9.176;2023-04-06T04:17:13;13.00;93.40
63383;DHT22;49512;48.744;9.176;2023-04-06T04:19:38;13.10;93.40
63383;DHT22;49512;48.744;9.176;2023-04-06T04:22:04;13.00;93.40
63383;DHT22;49512;48.744;9.176;2023-04-06T04:24:30;13.00;93.40
63383;DHT22;49512;48.744;9.176;2023-04-06T04:26:56;13.00;93.40
63383;DHT22;49512;48.744;9.176;2023-04-06T04:29:22;13.10;93.40
63383;DHT22;49512;48.744;9.176;2023-04-06T04:31:48;13.10;93.40
63383;DHT22;49512;48.744;9.176;2023-04-06T04:34:14;13.00;93.30
63383;DHT22;49512;48.744;9.176;2023-04-06T04:36:40;13.00;93.30
63383;DHT22;49512;48.744;9.176;2023-04-06T04:39:07;13.00;93.30
63383;DHT22;49512;48.744;9.176;2023-04-06T04:41:33;13.00;93.30
63383;DHT22;49512;48.744;9.176;2023-04-06T04:43:58;13.10;93.70
63383;DHT22;49512;48.744;9.176;2023-04-06T04:46:24;13.10;93.70
63383;DHT22;49512;48.744;9.176;2023-04-06T04:48:49;13.00;93.20
63383;DHT22;49512;48.744;9.176;2023-04-06T04:53:41;13.00;93.20
63383;DHT22;49512;48.744;9.176;2023-04-06T04:56:06;13.00;93.30
63383;DHT22;49512;48.744;9.176;2023-04-06T04:58:32;13.00;93.20
63383;DHT22;49512;48.744;9.176;2023-04-06T05:00:57;13.00;93.20
63383;DHT22;49512;48.744;9.176;2023-04-06T05:03:23;13.00;93.20
63383;DHT22;49512;48.744;9.176;2023-04-06T05:05:49;13.00;93.20
63383;DHT22;49512;48.744;9.176;2023-04-06T05:08:15;13.00;93.10
63383;DHT22;49512;48.744;9.176;2023-04-06T05:10:40;13.00;93.10
63383;DHT22;49512;48.744;9.176;2023-04-06T05:13:06;13.00;93.20
63383;DHT22;49512;48.744;9.176;2023-04-06T05:15:32;13.00;93.20
63383;DHT22;49512;48.744;9.176;2023-04-06T05:18:00;13.00;93.20
63383;DHT22;49512;48.744;9.176;2023-04-06T05:20:25;13.00;93.20
63383;DHT22;49512;48.744;9.176;2023-04-06T05:22:51;13.00;93.30
63383;DHT22;49512;48.744;9.176;2023-04-06T05:25:16;13.00;93.30
63383;DHT22;49512;48.744;9.176;2023-04-06T05:27:42;13.00;93.10
63383;DHT22;49512;48.744;9.176;2023-04-06T05:30:07;13.00;93.10
63383;DHT22;49512;48.744;9.176;2023-04-06T05:32:33;13.00;93.20
63383;DHT22;49512;48.744;9.176;2023-04-06T05:34:59;13.00;93.30
63383;DHT22;49512;48.744;9.176;2023-04-06T05:37:25;13.00;93.30
63383;DHT22;49512;48.744;9.176;2023-04-06T05:39:50;13.00;93.20
63383;DHT22;49512;48.744;9.176;2023-04-06T05:42:16;13.00;93.10
63383;DHT22;49512;48.744;9.176;2023-04-06T05:44:41;13.00;93.10
63383;DHT22;49512;48.744;9.176;2023-04-06T05:47:07;13.00;93.00
63383;DHT22;49512;48.744;9.176;2023-04-06T05:49:32;13.10;92.90
63383;DHT22;49512;48.744;9.176;2023-04-06T05:51:58;13.10;93.30
63383;DHT22;49512;48.744;9.176;2023-04-06T05:54:23;13.10;93.20
63383;DHT22;49512;48.744;9.176;2023-04-06T05:56:49;13.10;93.10
63383;DHT22;49512;48.744;9.176;2023-04-06T06:01:40;13.00;92.70
63383;DHT22;49512;48.744;9.176;2023-04-06T06:04:06;13.00;92.70
63383;DHT22;49512;48.744;9.176;2023-04-06T06:06:31;13.00;92.70
63383;DHT22;49512;48.744;9.176;2023-04-06T06:08:57;13.00;92.80
63383;DHT22;49512;48.744;9.176;2023-04-06T06:11:26;13.00;92.80
63383;DHT22;49512;48.744;9.176;2023-04-06T06:13:52;13.00;92.80
63383;DHT22;49512;48.744;9.176;2023-04-06T06:16:18;13.00;92.70
63383;DHT22;49512;48.744;9.176;2023-04-06T06:18:44;13.00;92.80
63383;DHT22;49512;48.744;9.176;2023-04-06T06:21:09;13.00;92.80
63383;DHT22;49512;48.744;9.176;2023-04-06T06:23:36;13.00;92.80
63383;DHT22;49512;48.744;9.176;2023-04-06T06:26:02;13.00;92.80
63383;DHT22;49512;48.744;9.176;2023-04-06T06:28:27;13.00;92.80
63383;DHT22;49512;48.744;9.176;2023-04-06T06:30:53;13.00;92.80
63383;DHT22;49512;48.744;9.176;2023-04-06T06:33:18;13.00;92.80
63383;DHT22;49512;48.744;9.176;2023-04-06T06:35:44;13.00;92.80
63383;DHT22;49512;48.744;9.176;2023-04-06T06:38:10;13.00;92.80
63383;DHT22;49512;48.744;9.176;2023-04-06T06:40:35;13.00;92.80
63383;DHT22;49512;48.744;9.176;2023-04-06T06:43:02;13.00;92.90
63383;DHT22;49512;48.744;9.176;2023-04-06T06:45:27;13.00;92.90
63383;DHT22;49512;48.744;9.176;2023-04-06T06:47:54;13.00;92.90
63383;DHT22;49512;48.744;9.176;2023-04-06T06:50:20;13.00;92.90
63383;DHT22;49512;48.744;9.176;2023-04-06T06:52:45;13.00;92.90
63383;DHT22;49512;48.744;9.176;2023-04-06T06:55:11;13.00;93.00
63383;DHT22;49512;48.744;9.176;2023-04-06T06:57:36;13.00;93.30
63383;DHT22;49512;48.744;9.176;2023-04-06T07:00:03;13.00;93.70
63383;DHT22;49512;48.744;9.176;2023-04-06T07:02:30;13.00;94.10
63383;DHT22;49512;48.744;9.176;2023-04-06T07:04:56;13.00;94.30
63383;DHT22;49512;48.744;9.176;2023-04-06T07:07:22;13.00;94.40
63383;DHT22;49512;48.744;9.176;2023-04-06T07:09:47;13.00;94.60
63383;DHT22;49512;48.744;9.176;2023-04-06T07:12:13;13.00;94.60
63383;DHT22;49512;48.744;9.176;2023-04-06T07:14:38;13.00;94.60
63383;DHT22;49512;48.744;9.176;2023-04-06T07:17:04;13.10;94.90
63383;DHT22;49512;48.744;9.176;2023-04-06T07:19:29;13.00;95.00
63383;DHT22;49512;48.744;9.176;2023-04-06T07:21:55;13.00;95.10
63383;DHT22;49512;48.744;9.176;2023-04-06T07:24:21;13.10;95.20
63383;DHT22;49512;48.744;9.176;2023-04-06T07:26:47;13.00;95.10
63383;DHT22;49512;48.744;9.176;2023-04-06T07:29:12;13.00;95.30
63383;DHT22;49512;48.744;9.176;2023-04-06T07:31:38;13.00;95.30
63383;DHT22;49512;48.744;9.176;2023-04-06T07:34:03;13.00;95.30
63383;DHT22;49512;48.744;9.176;2023-04-06T07:36:29;13.00;95.40
63383;DHT22;49512;48.744;9.176;2023-04-06T07:38:54;13.00;95.40
63383;DHT22;49512;48.744;9.176;2023-04-06T07:41:20;13.00;95.40
63383;DHT22;49512;48.744;9.176;2023-04-06T07:43:45;13.00;95.50
63383;DHT22;49512;48.744;9.176;2023-04-06T07:46:11;13.00;95.50
63383;DHT22;49512;48.744;9.176;2023-04-06T07:48:36;13.00;95.60
63383;DHT22;49512;48.744;9.176;2023-04-06T07:51:03;13.00;95.90
63383;DHT22;49512;48.744;9.176;2023-04-06T07:53:29;13.00;95.50
63383;DHT22;49512;48.744;9.176;2023-04-06T07:55:55;13.00;95.50
63383;DHT22;49512;48.744;9.176;2023-04-06T07:58:21;13.00;95.40
63383;DHT22;49512;48.744;9.176;2023-04-06T08:00:46;13.00;95.80
63383;DHT22;49512;48.744;9.176;2023-04-06T08:03:12;13.00;95.40
63383;DHT22;49512;48.744;9.176;2023-04-06T08:05:37;13.00;95.40
63383;DHT22;49512;48.744;9.176;2023-04-06T08:08:03;13.00;95.40
63383;DHT22;49512;48.744;9.176;2023-04-06T08:10:29;13.00;95.40
63383;DHT22;49512;48.744;9.176;2023-04-06T08:12:54;13.00;95.30
63383;DHT22;49512;48.744;9.176;2023-04-06T08:15:20;13.00;95.40
63383;DHT22;49512;48.744;9.176;2023-04-06T08:17:45;12.90;95.30
63383;DHT22;49512;48.744;9.176;2023-04-06T08:20:11;13.00;95.30
63383;DHT22;49512;48.744;9.176;2023-04-06T08:22:37;12.90;95.30
63383;DHT22;49512;48.744;9.176;2023-04-06T08:25:03;12.90;95.30
63383;DHT22;49512;48.744;9.176;2023-04-06T08:27:28;13.00;95.30
63383;DHT22;49512;48.744;9.176;2023-04-06T08:29:54;13.00;95.30
63383;DHT22;49512;48.744;9.176;2023-04-06T08:32:20;12.90;95.30
63383;DHT22;49512;48.744;9.176;2023-04-06T08:34:46;12.90;95.30
63383;DHT22;49512;48.744;9.176;2023-04-06T08:37:11;12.90;95.30
63383;DHT22;49512;48.744;9.176;2023-04-06T08:39:37;12.90;95.30
63383;DHT22;49512;48.744;9.176;2023-04-06T08:42:02;12.90;95.30
63383;DHT22;49512;48.744;9.176;2023-04-06T08:44:31;12.90;95.30
63383;DHT22;49512;48.744;9.176;2023-04-06T08:46:57;12.90;95.20
63383;DHT22;49512;48.744;9.176;2023-04-06T08:49:24;12.90;95.20
63383;DHT22;49512;48.744;9.176;2023-04-06T08:51:50;12.90;95.20
63383;DHT22;49512;48.744;9.176;2023-04-06T08:54:16;12.90;95.20
63383;DHT22;49512;48.744;9.176;2023-04-06T08:56:41;13.00;95.60
63383;DHT22;49512;48.744;9.176;2023-04-06T08:59:08;13.00;95.10
63383;DHT22;49512;48.744;9.176;2023-04-06T09:01:36;12.90;95.10
63383;DHT22;49512;48.744;9.176;2023-04-06T09:04:03;12.90;95.10
63383;DHT22;49512;48.744;9.176;2023-04-06T09:06:34;12.90;95.00
63383;DHT22;49512;48.744;9.176;2023-04-06T09:08:59;13.00;95.00
63383;DHT22;49512;48.744;9.176;2023-04-06T09:11:25;12.90;94.90
63383;DHT22;49512;48.744;9.176;2023-04-06T09:13:51;12.90;94.90
63383;DHT22;49512;48.744;9.176;2023-04-06T09:16:17;13.00;95.00
63383;DHT22;49512;48.744;9.176;2023-04-06T09:18:43;13.00;95.10
63383;DHT22;49512;48.744;9.176;2023-04-06T09:21:09;12.90;95.10
63383;DHT22;49512;48.744;9.176;2023-04-06T09:23:35;12.90;95.10
63383;DHT22;49512;48.744;9.176;2023-04-06T09:26:08;12.90;95.10
63383;DHT22;49512;48.744;9.176;2023-04-06T09:29:08;12.90;95.10
63383;DHT22;49512;48.744;9.176;2023-04-06T09:31:30;12.90;95.10
63383;DHT22;49512;48.744;9.176;2023-04-06T09:33:58;13.00;95.50
63383;DHT22;49512;48.744;9.176;2023-04-06T09:36:34;12.90;95.40
63383;DHT22;49512;48.744;9.176;2023-04-06T09:39:03;13.00;95.10
63383;DHT22;49512;48.744;9.176;2023-04-06T09:41:33;12.90;95.40
63383;DHT22;49512;48.744;9.176;2023-04-06T09:44:09;12.90;95.00
63383;DHT22;49512;48.744;9.176;2023-04-06T09:46:36;12.90;95.00
63383;DHT22;49512;48.744;9.176;2023-04-06T09:49:02;12.90;95.00
63383;DHT22;49512;48.744;9.176;2023-04-06T09:51:30;12.90;95.00
63383;DHT22;49512;48.744;9.176;2023-04-06T09:53:56;12.90;95.10
63383;DHT22;49512;48.744;9.176;2023-04-06T09:56:28;12.90;95.10
63383;DHT22;49512;48.744;9.176;2023-04-06T09:58:56;12.90;95.00
63383;DHT22;49512;48.744;9.176;2023-04-06T10:01:21;12.90;95.00
63383;DHT22;49512;48.744;9.176;2023-04-06T10:03:56;12.90;95.10
63383;DHT22;49512;48.744;9.176;2023-04-06T10:06:27;12.90;95.40
63383;DHT22;49512;48.744;9.176;2023-04-06T10:08:53;12.90;95.10
63383;DHT22;49512;48.744;9.176;2023-04-06T10:11:20;12.90;95.50
63383;DHT22;49512;48.744;9.176;2023-04-06T10:13:47;12.90;95.10
63383;DHT22;49512;48.744;9.176;2023-04-06T10:16:14;12.90;95.40
63383;DHT22;49512;48.744;9.176;2023-04-06T10:18:40;12.90;95.00
63383;DHT22;49512;48.744;9.176;2023-04-06T10:21:11;12.90;94.90
63383;DHT22;49512;48.744;9.176;2023-04-06T10:23:45;12.90;94.90
63383;DHT22;49512;48.744;9.176;2023-04-06T10:26:13;12.90;95.20
63383;DHT22;49512;48.744;9.176;2023-04-06T10:28:40;12.90;94.80
63383;DHT22;49512;48.744;9.176;2023-04-06T10:31:06;12.90;95.20
63383;DHT22;49512;48.744;9.176;2023-04-06T10:33:32;12.90;95.20
63383;DHT22;49512;48.744;9.176;2023-04-06T10:35:58;12.90;95.20
63383;DHT22;49512;48.744;9.176;2023-04-06T10:38:33;12.90;94.80
63383;DHT22;49512;48.744;9.176;2023-04-06T10:41:09;12.90;94.80
63383;DHT22;49512;48.744;9.176;2023-04-06T10:43:35;12.90;94.80
63383;DHT22;49512;48.744;9.176;2023-04-06T10:46:01;12.90;94.80
63383;DHT22;49512;48.744;9.176;2023-04-06T10:48:37;12.90;94.80
63383;DHT22;49512;48.744;9.176;2023-04-06T10:51:07;12.90;94.80
63383;DHT22;49512;48.744;9.176;2023-04-06T10:53:32;12.90;94.70
63383;DHT22;49512;48.744;9.176;2023-04-06T10:55:58;12.90;94.70
63383;DHT22;49512;48.744;9.176;2023-04-06T10:58:25;12.90;94.60
63383;DHT22;49512;48.744;9.176;2023-04-06T11:00:51;12.90;94.50
63383;DHT22;49512;48.744;9.176;2023-04-06T11:03:17;12.90;94.60
63383;DHT22;49512;48.744;9.176;2023-04-06T11:05:50;12.90;94.90
63383;DHT22;49512;48.744;9.176;2023-04-06T11:08:22;13.00;95.20
63383;DHT22;49512;48.744;9.176;2023-04-06T11:10:48;13.00;95.50
63383;DHT22;49512;48.744;9.176;2023-04-06T11:13:14;12.90;95.40
63383;DHT22;49512;48.744;9.176;2023-04-06T11:15:40;12.90;95.50
63383;DHT22;49512;48.744;9.176;2023-04-06T11:18:06;12.90;95.60
63383;DHT22;49512;48.744;9.176;2023-04-06T11:20:31;12.90;95.60
63383;DHT22;49512;48.744;9.176;2023-04-06T11:22:57;12.90;95.60
63383;DHT22;49512;48.744;9.176;2023-04-06T11:25:24;12.90;95.60
63383;DHT22;49512;48.744;9.176;2023-04-06T11:27:51;12.90;95.50
63383;DHT22;49512;48.744;9.176;2023-04-06T11:30:17;12.90;95.50
63383;DHT22;49512;48.744;9.176;2023-04-06T11:32:43;12.90;95.80
63383;DHT22;49512;48.744;9.176;2023-04-06T11:35:19;12.90;95.10
63383;DHT22;49512;48.744;9.176;2023-04-06T11:37:44;12.90;95.30
63383;DHT22;49512;48.744;9.176;2023-04-06T11:40:11;12.90;95.00
63383;DHT22;49512;48.744;9.176;2023-04-06T11:42:36;13.00;95.40
63383;DHT22;49512;48.744;9.176;2023-04-06T11:45:02;13.00;95.40
63383;DHT22;49512;48.744;9.176;2023-04-06T11:47:28;12.90;95.10
63383;DHT22;49512;48.744;9.176;2023-04-06T11:49:54;13.00;95.10
63383;DHT22;49512;48.744;9.176;2023-04-06T11:52:23;12.90;95.10
63383;DHT22;49512;48.744;9.176;2023-04-06T11:54:50;12.90;95.10
63383;DHT22;49512;48.744;9.176;2023-04-06T11:57:16;12.90;95.10
63383;DHT22;49512;48.744;9.176;2023-04-06T11:59:42;12.90;95.10
63383;DHT22;49512;48.744;9.176;2023-04-06T12:02:07;13.00;95.10
63383;DHT22;49512;48.744;9.176;2023-04-06T12:04:33;13.00;95.70
63383;DHT22;49512;48.744;9.176;2023-04-06T12:06:58;12.90;95.20
63383;DHT22;49512;48.744;9.176;2023-04-06T12:09:24;13.00;95.20
63383;DHT22;49512;48.744;9.176;2023-04-06T12:11:49;12.90;95.20
63383;DHT22;49512;48.744;9.176;2023-04-06T12:14:15;12.90;95.30
63383;DHT22;49512;48.744;9.176;2023-04-06T12:16:41;12.90;95.40
63383;DHT22;49512;48.744;9.176;2023-04-06T12:19:07;13.00;95.50
63383;DHT22;49512;48.744;9.176;2023-04-06T12:21:33;13.00;95.60
63383;DHT22;49512;48.744;9.176;2023-04-06T12:24:00;12.90;95.60
63383;DHT22;49512;48.744;9.176;2023-04-06T12:26:26;12.90;95.70
63383;DHT22;49512;48.744;9.176;2023-04-06T12:28:51;13.00;95.90
63383;DHT22;49512;48.744;9.176;2023-04-06T12:31:18;12.90;95.90
63383;DHT22;49512;48.744;9.176;2023-04-06T12:33:46;13.00;96.00
63383;DHT22;49512;48.744;9.176;2023-04-06T12:36:12;12.90;96.00
63383;DHT22;49512;48.744;9.176;2023-04-06T12:38:39;12.90;96.10
63383;DHT22;49512;48.744;9.176;2023-04-06T12:41:06;12.90;96.00
63383;DHT22;49512;48.744;9.176;2023-04-06T12:43:31;12.90;96.00
63383;DHT22;49512;48.744;9.176;2023-04-06T12:45:57;12.90;96.00
63383;DHT22;49512;48.744;9.176;2023-04-06T12:48:22;12.90;95.80
63383;DHT22;49512;48.744;9.176;2023-04-06T12:50:55;12.90;96.20
63383;DHT22;49512;48.744;9.176;2023-04-06T12:53:20;12.90;96.10
63383;DHT22;49512;48.744;9.176;2023-04-06T12:55:46;12.90;95.80
63383;DHT22;49512;48.744;9.176;2023-04-06T12:58:11;12.90;95.80
63383;DHT22;49512;48.744;9.176;2023-04-06T13:00:37;12.90;96.10
63383;DHT22;49512;48.744;9.176;2023-04-06T13:03:02;12.90;95.70
63383;DHT22;49512;48.744;9.176;2023-04-06T13:05:28;12.90;95.50
63383;DHT22;49512;48.744;9.176;2023-04-06T13:07:53;12.90;95.50
63383;DHT22;49512;48.744;9.176;2023-04-06T13:10:19;12.90;95.60
63383;DHT22;49512;48.744;9.176;2023-04-06T13:12:45;12.90;95.60
63383;DHT22;49512;48.744;9.176;2023-04-06T13:15:10;12.90;95.40
63383;DHT22;49512;48.744;9.176;2023-04-06T13:17:36;12.90;95.20
63383;DHT22;49512;48.744;9.176;2023-04-06T13:20:02;12.90;94.20
63383;DHT22;49512;48.744;9.176;2023-04-06T13:22:28;12.90;93.60
63383;DHT22;49512;48.744;9.176;2023-04-06T13:24:54;12.90;92.50
63383;DHT22;49512;48.744;9.176;2023-04-06T13:27:20;12.90;91.80
63383;DHT22;49512;48.744;9.176;2023-04-06T13:29:45;13.00;92.10
63383;DHT22;49512;48.744;9.176;2023-04-06T13:32:11;13.00;92.60
63383;DHT22;49512;48.744;9.176;2023-04-06T13:34:36;13.10;93.10
63383;DHT22;49512;48.744;9.176;2023-04-06T13:37:02;13.10;93.60
63383;DHT22;49512;48.744;9.176;2023-04-06T13:39:27;13.10;93.70
63383;DHT22;49512;48.744;9.176;2023-04-06T13:41:53;13.00;93.80
63383;DHT22;49512;48.744;9.176;2023-04-06T13:44:20;13.00;93.60
63383;DHT22;49512;48.744;9.176;2023-04-06T13:46:46;13.00;93.70
63383;DHT22;49512;48.744;9.176;2023-04-06T13:49:12;13.10;95.10
63383;DHT22;49512;48.744;9.176;2023-04-06T13:51:37;13.10;95.50
63383;DHT22;49512;48.744;9.176;2023-04-06T13:54:03;13.10;96.20
63383;DHT22;49512;48.744;9.176;2023-04-06T13:56:28;13.10;97.00
63383;DHT22;49512;48.744;9.176;2023-04-06T13:58:54;13.20;97.60
63383;DHT22;49512;48.744;9.176;2023-04-06T14:01:20;13.10;97.30
63383;DHT22;49512;48.744;9.176;2023-04-06T14:03:46;13.10;97.20
63383;DHT22;49512;48.744;9.176;2023-04-06T14:06:13;13.10;97.00
63383;DHT22;49512;48.744;9.176;2023-04-06T14:08:39;13.10;96.50
63383;DHT22;49512;48.744;9.176;2023-04-06T14:11:06;13.10;96.40
63383;DHT22;49512;48.744;9.176;2023-04-06T14:13:33;13.00;96.20
63383;DHT22;49512;48.744;9.176;2023-04-06T14:15:59;13.00;95.80
63383;DHT22;49512;48.744;9.176;2023-04-06T14:18:24;13.20;95.40
63383;DHT22;49512;48.744;9.176;2023-04-06T14:20:53;13.10;95.40
63383;DHT22;49512;48.744;9.176;2023-04-06T14:23:19;13.10;95.50
63383;DHT22;49512;48.744;9.176;2023-04-06T14:25:44;13.20;95.50
63383;DHT22;49512;48.744;9.176;2023-04-06T14:28:10;13.20;95.50
63383;DHT22;49512;48.744;9.176;2023-04-06T14:30:35;13.10;95.50
63383;DHT22;49512;48.744;9.176;2023-04-06T14:33:01;13.10;95.70
63383;DHT22;49512;48.744;9.176;2023-04-06T14:35:26;13.10;95.90
63383;DHT22;49512;48.744;9.176;2023-04-06T14:37:53;13.10;96.00
63383;DHT22;49512;48.744;9.176;2023-04-06T14:40:18;13.20;96.00
63383;DHT22;49512;48.744;9.176;2023-04-06T14:42:44;13.10;96.10
63383;DHT22;49512;48.744;9.176;2023-04-06T14:45:10;13.20;96.60
63383;DHT22;49512;48.744;9.176;2023-04-06T14:47:35;13.10;96.60
63383;DHT22;49512;48.744;9.176;2023-04-06T14:50:01;13.20;96.90
63383;DHT22;49512;48.744;9.176;2023-04-06T14:52:26;13.20;96.70
63383;DHT22;49512;48.744;9.176;2023-04-06T14:54:52;13.20;96.50
63383;DHT22;49512;48.744;9.176;2023-04-06T14:57:17;13.20;96.50
63383;DHT22;49512;48.744;9.176;2023-04-06T14:59:43;13.20;96.50
63383;DHT22;49512;48.744;9.176;2023-04-06T15:02:11;13.20;96.50
63383;DHT22;49512;48.744;9.176;2023-04-06T15:04:38;13.20;96.40
63383;DHT22;49512;48.744;9.176;2023-04-06T15:07:03;13.20;96.40
63383;DHT22;49512;48.744;9.176;2023-04-06T15:09:29;13.20;96.30
63383;DHT22;49512;48.744;9.176;2023-04-06T15:11:54;13.20;96.30
63383;DHT22;49512;48.744;9.176;2023-04-06T15:14:20;13.30;96.20
63383;DHT22;49512;48.744;9.176;2023-04-06T15:16:46;13.10;96.20
63383;DHT22;49512;48.744;9.176;2023-04-06T15:19:11;13.30;96.50
63383;DHT22;49512;48.744;9.176;2023-04-06T15:21:37;13.20;96.50
63383;DHT22;49512;48.744;9.176;2023-04-06T15:24:03;13.30;96.60
63383;DHT22;49512;48.744;9.176;2023-04-06T15:26:31;13.30;96.60
63383;DHT22;49512;48.744;9.176;2023-04-06T15:28:56;13.30;96.60